createdAt,value
2019-03-04T00:01:43.141Z,76.60
2019-03-04T00:04:10.941Z,76.10
2019-03-04T00:06:38.302Z,76.00
2019-03-04T00:09:05.926Z,75.90
2019-03-04T00:11:35.447Z,75.90
2019-03-04T00:14:02.913Z,75.60
2019-03-04T00:16:32.334Z,75.30
2019-03-04T00:19:01.398Z,75.60
2019-03-04T00:21:28.983Z,75.10
2019-03-04T00:23:56.385Z,76.00
2019-03-04T00:26:23.652Z,75.30
2019-03-04T00:28:51.003Z,75.10
2019-03-04T00:31:18.270Z,74.60
2019-03-04T00:33:45.620Z,75.50
2019-03-04T00:36:13.019Z,75.80
2019-03-04T00:38:40.225Z,76.20
2019-03-04T00:41:07.725Z,76.40
2019-03-04T00:43:35.479Z,76.60
2019-03-04T00:46:02.884Z,76.30
2019-03-04T00:48:30.142Z,74.90
2019-03-04T00:50:57.493Z,74.90
2019-03-04T00:53:24.919Z,74.80
2019-03-04T00:55:52.542Z,75.20
2019-03-04T00:58:19.928Z,74.80
2019-03-04T01:00:47.653Z,74.40
2019-03-04T01:03:15.030Z,74.70
2019-03-04T01:05:42.470Z,74.20
2019-03-04T01:08:10.833Z,73.80
2019-03-04T01:10:39.896Z,74.70
2019-03-04T01:13:07.667Z,73.80
2019-03-04T01:15:36.059Z,74.00
2019-03-04T01:18:03.315Z,74.20
2019-03-04T01:20:31.031Z,73.80
2019-03-04T01:22:58.502Z,75.20
2019-03-04T01:25:25.932Z,74.80
2019-03-04T01:27:53.293Z,75.50
2019-03-04T01:30:21.779Z,75.30
2019-03-04T01:32:49.800Z,76.10
2019-03-04T01:35:17.145Z,75.70
2019-03-04T01:37:44.409Z,76.40
2019-03-04T01:40:19.355Z,76.60
2019-03-04T01:42:46.718Z,76.70
2019-03-04T01:45:14.760Z,76.40
2019-03-04T01:47:41.983Z,76.70
2019-03-04T01:50:11.267Z,77.10
2019-03-04T01:52:38.868Z,76.80
2019-03-04T01:55:07.705Z,76.50
2019-03-04T01:57:34.956Z,77.20
2019-03-04T02:00:02.283Z,77.10
2019-03-04T02:02:31.096Z,77.70
2019-03-04T02:04:58.349Z,76.80
2019-03-04T02:07:27.111Z,77.00
2019-03-04T02:09:54.386Z,76.80
2019-03-04T02:12:22.233Z,76.80
2019-03-04T02:14:49.621Z,76.80
2019-03-04T02:17:16.811Z,76.00
2019-03-04T02:19:44.021Z,74.90
2019-03-04T02:22:11.393Z,74.30
2019-03-04T02:24:38.710Z,73.60
2019-03-04T02:27:05.993Z,73.50
2019-03-04T02:29:33.504Z,73.20
2019-03-04T02:32:00.905Z,73.40
2019-03-04T02:34:29.231Z,73.30
2019-03-04T02:36:56.573Z,73.30
2019-03-04T02:39:23.933Z,73.20
2019-03-04T02:41:51.524Z,73.80
2019-03-04T02:44:18.650Z,73.90
2019-03-04T02:46:45.869Z,74.70
2019-03-04T02:49:13.159Z,74.80
2019-03-04T02:51:40.865Z,74.40
2019-03-04T02:54:08.268Z,74.50
2019-03-04T02:56:35.736Z,74.10
2019-03-04T02:59:03.213Z,73.80
2019-03-04T03:01:30.775Z,74.80
2019-03-04T03:03:58.532Z,75.00
2019-03-04T03:06:25.922Z,74.90
2019-03-04T03:08:53.272Z,76.30
2019-03-04T03:11:20.661Z,75.60
2019-03-04T03:13:48.241Z,75.50
2019-03-04T03:16:15.744Z,75.50
2019-03-04T03:18:43.656Z,73.90
2019-03-04T03:21:10.936Z,73.70
2019-03-04T03:23:38.272Z,73.90
2019-03-04T03:26:05.665Z,74.30
2019-03-04T03:28:32.912Z,74.20
2019-03-04T03:31:00.340Z,75.10
2019-03-04T03:33:27.715Z,75.10
2019-03-04T03:35:55.023Z,75.50
2019-03-04T03:38:22.438Z,75.70
2019-03-04T03:40:50.898Z,76.00
2019-03-04T03:43:18.322Z,75.60
2019-03-04T03:45:45.424Z,74.90
2019-03-04T03:48:12.880Z,76.10
2019-03-04T03:50:40.194Z,75.90
2019-03-04T03:53:07.476Z,76.00
2019-03-04T03:55:35.005Z,76.00
2019-03-04T03:58:02.569Z,76.10
2019-03-04T04:00:30.890Z,76.50
2019-03-04T04:02:58.291Z,77.30
2019-03-04T04:05:25.873Z,77.30
2019-03-04T04:07:53.095Z,76.90
2019-03-04T04:10:20.452Z,77.90
2019-03-04T04:12:47.813Z,77.80
2019-03-04T04:15:15.514Z,78.00
2019-03-04T04:17:43.351Z,77.90
2019-03-04T04:20:11.078Z,78.00
2019-03-04T04:22:38.577Z,78.00
2019-03-04T04:25:06.677Z,78.60
2019-03-04T04:27:34.037Z,78.80
2019-03-04T04:30:01.664Z,78.90
2019-03-04T04:32:29.490Z,78.80
2019-03-04T04:34:56.772Z,78.50
2019-03-04T04:37:24.162Z,79.00
2019-03-04T04:39:51.480Z,78.90
2019-03-04T04:42:20.445Z,77.10
2019-03-04T04:44:47.729Z,75.60
2019-03-04T04:47:16.216Z,73.70
2019-03-04T04:49:43.450Z,73.50
2019-03-04T04:52:10.834Z,72.90
2019-03-04T04:54:38.229Z,72.10
2019-03-04T04:57:05.813Z,71.80
2019-03-04T04:59:33.395Z,71.40
2019-03-04T05:02:01.750Z,71.30
2019-03-04T05:04:29.527Z,71.30
2019-03-04T05:06:57.254Z,70.90
2019-03-04T05:09:24.644Z,70.20
2019-03-04T05:11:52.174Z,70.20
2019-03-04T05:14:19.400Z,69.80
2019-03-04T05:16:46.779Z,70.10
2019-03-04T05:19:14.165Z,69.30
2019-03-04T05:21:41.537Z,69.20
2019-03-04T05:24:08.764Z,68.80
2019-03-04T05:26:36.152Z,69.10
2019-03-04T05:29:03.357Z,68.70
2019-03-04T05:31:30.768Z,68.50
2019-03-04T05:33:57.968Z,68.60
2019-03-04T05:36:25.239Z,69.00
2019-03-04T05:38:52.557Z,69.00
2019-03-04T05:41:20.035Z,69.70
2019-03-04T05:43:48.497Z,70.90
2019-03-04T05:46:16.954Z,70.00
2019-03-04T05:48:44.222Z,69.40
2019-03-04T05:51:11.599Z,69.60
2019-03-04T05:53:38.713Z,70.30
2019-03-04T05:56:06.097Z,70.30
2019-03-04T05:58:33.401Z,70.00
2019-03-04T06:01:18.401Z,70.90
2019-03-04T06:03:47.181Z,70.50
2019-03-04T06:06:15.313Z,70.60
2019-03-04T06:08:44.473Z,70.60
2019-03-04T06:11:12.259Z,70.90
2019-03-04T06:13:39.615Z,70.60
2019-03-04T06:16:06.874Z,69.70
2019-03-04T06:18:34.126Z,69.70
2019-03-04T06:21:01.501Z,69.90
2019-03-04T06:23:28.927Z,69.50
2019-03-04T06:25:57.580Z,69.30
2019-03-04T06:28:25.077Z,69.20
2019-03-04T06:30:52.437Z,69.40
2019-03-04T06:33:19.816Z,69.70
2019-03-04T06:35:47.188Z,69.20
2019-03-04T06:38:14.629Z,69.50
2019-03-04T06:40:41.901Z,69.40
2019-03-04T06:43:09.309Z,69.20
2019-03-04T06:45:36.589Z,69.00
2019-03-04T06:48:04.334Z,68.60
2019-03-04T06:50:47.642Z,68.80
2019-03-04T06:53:19.410Z,68.50
2019-03-04T06:56:08.352Z,68.70
2019-03-04T06:58:39.808Z,68.70
2019-03-04T07:01:11.566Z,68.80
2019-03-04T07:03:45.948Z,68.60
2019-03-04T07:06:13.536Z,68.90
2019-03-04T07:09:11.582Z,69.30
2019-03-04T07:11:43.603Z,69.70
2019-03-04T07:14:10.975Z,69.20
2019-03-04T07:16:38.439Z,69.30
2019-03-04T07:19:08.948Z,69.60
2019-03-04T07:21:36.496Z,70.30
2019-03-04T07:24:04.130Z,68.90
2019-03-04T07:26:31.609Z,68.60
2019-03-04T07:28:58.969Z,67.90
2019-03-04T07:31:26.384Z,67.50
2019-03-04T07:33:53.797Z,67.50
2019-03-04T07:36:21.449Z,65.70
2019-03-04T07:38:54.585Z,65.30
2019-03-04T07:41:22.096Z,65.50
2019-03-04T07:43:49.769Z,65.80
2019-03-04T07:46:17.693Z,65.40
2019-03-04T07:48:44.941Z,65.90
2019-03-04T07:51:13.508Z,64.90
2019-03-04T07:53:46.448Z,65.50
2019-03-04T07:56:10.341Z,65.50
2019-03-04T07:58:37.583Z,65.70
2019-03-04T08:01:05.178Z,66.00
2019-03-04T08:03:32.441Z,66.20
2019-03-04T08:06:00.151Z,67.10
2019-03-04T08:08:27.632Z,68.40
2019-03-04T08:11:43.378Z,70.50
2019-03-04T08:14:10.666Z,73.60
2019-03-04T08:16:37.885Z,77.90
2019-03-04T08:19:05.126Z,79.30
2019-03-04T08:21:32.542Z,79.30
2019-03-04T08:23:59.834Z,79.80
2019-03-04T08:26:27.188Z,81.20
2019-03-04T08:28:54.575Z,81.50
2019-03-04T08:31:21.714Z,82.10
2019-03-04T08:33:49.065Z,83.20
2019-03-04T08:36:16.493Z,84.20
2019-03-04T08:38:43.630Z,85.10
2019-03-04T08:41:10.829Z,86.20
2019-03-04T08:43:38.096Z,85.40
2019-03-04T08:46:05.306Z,86.20
2019-03-04T08:48:32.713Z,87.00
2019-03-04T08:51:02.249Z,86.40
2019-03-04T08:53:31.014Z,86.90
2019-03-04T08:55:58.479Z,87.40
2019-03-04T08:58:25.675Z,86.50
2019-03-04T09:00:53.081Z,87.10
2019-03-04T09:03:20.384Z,85.30
2019-03-04T09:05:48.203Z,83.90
2019-03-04T09:08:15.703Z,83.80
2019-03-04T09:10:43.217Z,82.30
2019-03-04T09:13:10.532Z,82.10
2019-03-04T09:15:37.948Z,83.10
2019-03-04T09:18:05.326Z,83.10
2019-03-04T09:20:32.941Z,82.60
2019-03-04T09:23:00.358Z,83.10
2019-03-04T09:25:38.667Z,82.10
2019-03-04T09:28:06.053Z,81.40
2019-03-04T09:30:33.571Z,81.20
2019-03-04T09:33:00.882Z,81.60
2019-03-04T09:35:28.253Z,81.00
2019-03-04T09:37:56.173Z,81.10
2019-03-04T09:40:25.676Z,81.60
2019-03-04T09:42:53.267Z,82.10
2019-03-04T09:45:20.560Z,82.20
2019-03-04T09:47:47.978Z,82.20
2019-03-04T09:50:16.446Z,81.20
2019-03-04T09:52:44.033Z,81.60
2019-03-04T09:55:12.934Z,81.40
2019-03-04T09:57:40.650Z,81.40
2019-03-04T10:00:46.242Z,80.60
2019-03-04T10:03:43.628Z,80.80
2019-03-04T10:06:54.690Z,81.10
2019-03-04T10:09:48.172Z,81.30
2019-03-04T10:12:37.862Z,80.70
2019-03-04T10:15:20.965Z,80.60
2019-03-04T10:18:14.324Z,79.80
2019-03-04T10:21:24.065Z,80.50
2019-03-04T10:24:23.845Z,79.80
2019-03-04T10:27:20.914Z,79.70
2019-03-04T10:30:07.434Z,78.80
2019-03-04T10:33:11.077Z,79.40
2019-03-04T10:36:02.287Z,79.90
2019-03-04T10:38:48.728Z,79.80
2019-03-04T10:41:44.580Z,79.60
2019-03-04T10:44:37.863Z,79.90
2019-03-04T10:47:05.230Z,79.90
2019-03-04T10:49:34.453Z,79.10
2019-03-04T10:52:01.857Z,79.00
2019-03-04T10:54:29.175Z,78.80
2019-03-04T10:56:56.558Z,78.70
2019-03-04T10:59:23.801Z,78.90
2019-03-04T11:01:52.846Z,78.30
2019-03-04T11:04:20.661Z,77.60
2019-03-04T11:06:47.933Z,77.60
2019-03-04T11:09:15.187Z,76.50
2019-03-04T11:11:42.655Z,77.60
2019-03-04T11:14:10.196Z,77.50
2019-03-04T11:16:37.307Z,78.20
2019-03-04T11:19:05.667Z,78.10
2019-03-04T11:21:32.889Z,78.30
2019-03-04T11:24:00.514Z,78.20
2019-03-04T11:26:28.212Z,76.90
2019-03-04T11:28:55.466Z,77.10
2019-03-04T11:31:23.055Z,77.10
2019-03-04T11:33:50.432Z,77.10
2019-03-04T11:36:17.841Z,77.00
2019-03-04T11:38:47.323Z,76.50
2019-03-04T11:41:16.998Z,75.40
2019-03-04T11:43:44.689Z,74.60
2019-03-04T11:46:12.099Z,74.70
2019-03-04T11:48:39.763Z,75.40
2019-03-04T11:51:07.080Z,75.40
2019-03-04T11:53:34.627Z,74.70
2019-03-04T11:56:02.259Z,74.00
2019-03-04T11:58:29.575Z,74.60
2019-03-04T12:01:05.638Z,74.30
2019-03-04T12:03:32.866Z,74.50
2019-03-04T12:06:00.282Z,75.10
2019-03-04T12:08:27.561Z,75.60
2019-03-04T12:10:55.155Z,75.90
2019-03-04T12:13:22.556Z,76.10
2019-03-04T12:15:50.277Z,76.10
2019-03-04T12:18:17.753Z,75.00
2019-03-04T12:20:45.630Z,75.40
2019-03-04T12:23:14.115Z,75.00
2019-03-04T12:25:41.489Z,75.20
2019-03-04T12:28:08.930Z,75.70
2019-03-04T12:30:36.620Z,75.70
2019-03-04T12:33:04.638Z,75.70
2019-03-04T12:35:32.931Z,75.40
2019-03-04T12:38:01.052Z,75.60
2019-03-04T12:40:28.747Z,74.40
2019-03-04T12:42:55.869Z,74.90
2019-03-04T12:45:33.668Z,74.30
2019-03-04T12:47:52.617Z,73.10
2019-03-04T12:50:22.268Z,73.30
2019-03-04T12:52:49.484Z,73.40
2019-03-04T12:55:16.894Z,73.70
2019-03-04T12:57:44.244Z,73.90
2019-03-04T13:00:15.878Z,73.40
2019-03-04T13:02:44.087Z,73.60
2019-03-04T13:05:11.801Z,73.60
2019-03-04T13:07:39.204Z,73.10
2019-03-04T13:10:07.255Z,72.90
2019-03-04T13:12:34.483Z,72.40
2019-03-04T13:15:01.937Z,72.10
2019-03-04T13:17:29.395Z,72.40
2019-03-04T13:19:56.812Z,71.70
2019-03-04T13:22:24.252Z,71.80
2019-03-04T13:24:51.935Z,71.10
2019-03-04T13:27:23.712Z,70.70
2019-03-04T13:29:48.700Z,71.00
2019-03-04T13:32:16.258Z,69.70
2019-03-04T13:34:43.585Z,68.70
2019-03-04T13:37:10.990Z,68.00
2019-03-04T13:39:38.363Z,68.00
2019-03-04T13:42:05.467Z,68.70
2019-03-04T13:44:32.896Z,68.20
2019-03-04T13:47:00.050Z,67.60
2019-03-04T13:49:27.359Z,67.90
2019-03-04T13:51:55.842Z,66.30
2019-03-04T13:54:23.056Z,66.10
2019-03-04T13:56:50.476Z,65.90
2019-03-04T13:59:17.680Z,65.60
2019-03-04T14:01:45.001Z,64.90
2019-03-04T14:04:12.593Z,65.10
2019-03-04T14:06:39.869Z,65.30
2019-03-04T14:09:07.818Z,63.90
2019-03-04T14:11:36.909Z,63.30
2019-03-04T14:14:04.312Z,63.90
2019-03-04T14:16:32.696Z,63.80
2019-03-04T14:18:59.926Z,64.20
2019-03-04T14:21:27.501Z,64.00
2019-03-04T14:23:55.287Z,63.50
2019-03-04T14:26:22.518Z,64.30
2019-03-04T14:28:49.598Z,64.70
2019-03-04T14:31:16.858Z,64.30
2019-03-04T14:33:44.094Z,63.00
2019-03-04T14:36:11.481Z,63.80
2019-03-04T14:38:38.782Z,62.90
2019-03-04T14:41:06.097Z,62.20
2019-03-04T14:43:33.310Z,63.10
2019-03-04T14:46:00.713Z,61.80
2019-03-04T14:48:27.851Z,61.40
2019-03-04T14:50:55.459Z,61.90
2019-03-04T14:53:22.579Z,63.10
2019-03-04T14:55:50.115Z,63.80
2019-03-04T14:58:17.431Z,63.70
2019-03-04T15:00:47.733Z,63.60
2019-03-04T15:03:20.972Z,63.90
2019-03-04T15:05:44.497Z,64.60
2019-03-04T15:08:11.774Z,64.60
2019-03-04T15:10:39.087Z,64.70
2019-03-04T15:13:06.697Z,64.70
2019-03-04T15:15:33.899Z,64.70
2019-03-04T15:18:01.161Z,65.10
2019-03-04T15:20:29.326Z,65.60
2019-03-04T15:22:56.706Z,66.00
2019-03-04T15:25:26.695Z,66.40
2019-03-04T15:28:08.195Z,67.20
2019-03-04T15:30:37.847Z,67.80
2019-03-04T15:33:05.488Z,67.40
2019-03-04T15:35:32.770Z,67.70
2019-03-04T15:38:00.100Z,67.80
2019-03-04T15:40:27.344Z,72.20
2019-03-04T15:42:54.450Z,76.50
2019-03-04T15:45:21.778Z,78.90
2019-03-04T15:47:49.212Z,79.50
2019-03-04T15:50:16.682Z,81.20
2019-03-04T15:52:45.304Z,85.50
2019-03-04T15:55:12.897Z,86.40
2019-03-04T15:57:40.089Z,89.10
2019-03-04T16:00:09.201Z,89.00
2019-03-04T16:02:37.743Z,88.40
2019-03-04T16:05:06.546Z,89.40
2019-03-04T16:07:34.531Z,89.00
2019-03-04T16:10:02.040Z,90.00
2019-03-04T16:12:31.440Z,89.90
2019-03-04T16:14:58.817Z,90.10
2019-03-04T16:17:26.213Z,90.20
2019-03-04T16:19:56.702Z,90.40
2019-03-04T16:22:25.729Z,90.00
2019-03-04T16:24:53.554Z,90.40
2019-03-04T16:27:23.091Z,90.30
2019-03-04T16:29:50.261Z,90.10
2019-03-04T16:32:17.754Z,90.00
2019-03-04T16:34:45.143Z,90.40
2019-03-04T16:37:12.634Z,90.70
2019-03-04T16:39:39.908Z,90.10
2019-03-04T16:42:08.065Z,90.60
2019-03-04T16:44:35.465Z,90.20
2019-03-04T16:47:02.835Z,90.80
2019-03-04T16:49:30.590Z,90.90
2019-03-04T16:51:57.859Z,90.90
2019-03-04T16:54:25.526Z,90.90
2019-03-04T16:56:53.501Z,91.30
2019-03-04T16:59:20.799Z,90.80
2019-03-04T17:01:48.304Z,91.30
2019-03-04T17:04:16.626Z,91.90
2019-03-04T17:06:44.462Z,91.90
2019-03-04T17:09:18.740Z,92.50
2019-03-04T17:11:46.491Z,92.10
2019-03-04T17:14:13.638Z,92.20
2019-03-04T17:16:41.175Z,92.60
2019-03-04T17:19:09.615Z,92.40
2019-03-04T17:21:37.078Z,92.00
2019-03-04T17:24:04.542Z,92.20
2019-03-04T17:26:33.378Z,92.20
2019-03-04T17:29:01.186Z,92.00
2019-03-04T17:31:29.130Z,91.90
2019-03-04T17:33:56.975Z,91.80
2019-03-04T17:36:24.336Z,91.90
2019-03-04T17:38:52.001Z,91.90
2019-03-04T17:41:19.231Z,91.90
2019-03-04T17:43:46.773Z,91.20
2019-03-04T17:46:14.153Z,91.70
2019-03-04T17:48:42.077Z,91.40
2019-03-04T17:51:09.404Z,91.60
2019-03-04T17:53:37.046Z,91.60
2019-03-04T17:56:04.796Z,91.20
2019-03-04T17:58:32.069Z,91.40
2019-03-04T18:00:59.642Z,91.00
2019-03-04T18:03:26.959Z,91.00
2019-03-04T18:05:54.417Z,90.50
2019-03-04T18:08:22.092Z,90.10
2019-03-04T18:10:49.596Z,90.00
2019-03-04T18:13:16.939Z,89.00
2019-03-04T18:15:44.356Z,88.60
2019-03-04T18:18:13.680Z,88.00
2019-03-04T18:20:41.311Z,87.50
2019-03-04T18:23:08.787Z,87.50
2019-03-04T18:25:39.409Z,87.50
2019-03-04T18:28:11.445Z,87.20
2019-03-04T18:31:26.602Z,87.50
2019-03-04T18:34:23.481Z,88.30
2019-03-04T18:37:35.203Z,88.40
2019-03-04T18:40:51.626Z,89.00
2019-03-04T18:43:48.945Z,88.90
2019-03-04T18:46:58.189Z,88.80
2019-03-04T18:49:25.567Z,88.90
2019-03-04T18:51:52.807Z,88.00
2019-03-04T18:54:20.142Z,88.60
2019-03-04T18:56:50.170Z,88.50
2019-03-04T18:59:17.501Z,88.90
2019-03-04T19:01:45.074Z,89.60
2019-03-04T19:04:12.341Z,90.10
2019-03-04T19:06:40.554Z,90.70
2019-03-04T19:09:09.281Z,89.80
2019-03-04T19:11:38.478Z,89.70
2019-03-04T19:14:06.003Z,89.70
2019-03-04T19:16:33.450Z,89.70
2019-03-04T19:19:00.779Z,89.60
2019-03-04T19:21:28.247Z,90.10
2019-03-04T19:23:55.720Z,90.20
2019-03-04T19:26:23.201Z,91.50
2019-03-04T19:28:50.933Z,90.20
2019-03-04T19:31:21.529Z,90.70
2019-03-04T19:33:49.555Z,91.20
2019-03-04T19:36:17.011Z,91.80
2019-03-04T19:38:44.510Z,91.80
2019-03-04T19:41:12.668Z,91.50
2019-03-04T19:43:40.845Z,90.70
2019-03-04T19:46:08.527Z,91.90
2019-03-04T19:48:36.170Z,92.40
2019-03-04T19:51:03.603Z,92.10
2019-03-04T19:53:30.945Z,91.80
2019-03-04T19:55:58.328Z,91.60
2019-03-04T19:58:26.909Z,91.20
2019-03-04T20:00:54.474Z,91.70
2019-03-04T20:03:22.079Z,91.40
2019-03-04T20:05:49.395Z,91.70
2019-03-04T20:08:17.076Z,91.90
2019-03-04T20:10:44.954Z,91.90
2019-03-04T20:13:12.741Z,91.90
2019-03-04T20:15:40.871Z,91.60
2019-03-04T20:18:08.243Z,91.70
2019-03-04T20:20:35.686Z,92.20
2019-03-04T20:23:03.081Z,92.00
2019-03-04T20:25:31.357Z,92.40
2019-03-04T20:27:58.645Z,92.50
2019-03-04T20:30:26.250Z,92.60
2019-03-04T20:32:54.258Z,92.40
2019-03-04T20:35:22.494Z,92.10
2019-03-04T20:37:51.332Z,92.40
2019-03-04T20:40:18.555Z,92.70
2019-03-04T20:42:46.238Z,93.00
2019-03-04T20:45:15.072Z,92.20
2019-03-04T20:47:43.062Z,92.60
2019-03-04T20:50:14.031Z,92.70
2019-03-04T20:52:43.582Z,92.90
2019-03-04T20:55:11.666Z,92.80
2019-03-04T20:57:39.147Z,92.90
2019-03-04T21:00:10.752Z,92.80
2019-03-04T21:02:39.596Z,93.20
2019-03-04T21:05:09.900Z,93.20
2019-03-04T21:07:37.537Z,93.30
2019-03-04T21:10:06.729Z,92.90
2019-03-04T21:12:36.134Z,93.20
2019-03-04T21:15:05.032Z,93.20
2019-03-04T21:17:32.935Z,93.40
2019-03-04T21:20:00.385Z,93.50
2019-03-04T21:22:28.452Z,93.10
2019-03-04T21:24:58.138Z,93.30
2019-03-04T21:27:25.553Z,94.00
2019-03-04T21:30:38.411Z,93.70
2019-03-04T21:33:16.408Z,93.80
2019-03-04T21:36:23.904Z,94.20
2019-03-04T21:38:55.333Z,94.20
2019-03-04T21:41:37.065Z,93.50
2019-03-04T21:44:23.008Z,94.20
2019-03-04T21:47:01.437Z,94.20
2019-03-04T21:49:32.503Z,94.10
2019-03-04T21:52:23.750Z,94.10
2019-03-04T21:54:51.199Z,93.90
2019-03-04T21:57:25.865Z,94.60
2019-03-04T21:59:53.537Z,94.30
2019-03-04T22:02:48.621Z,93.70
2019-03-04T22:05:16.490Z,93.30
2019-03-04T22:07:45.565Z,92.90
2019-03-04T22:10:15.640Z,92.10
2019-03-04T22:12:44.585Z,92.20
2019-03-04T22:15:13.227Z,92.10
2019-03-04T22:17:40.869Z,91.70
2019-03-04T22:20:11.733Z,91.90
2019-03-04T22:22:40.600Z,91.70
2019-03-04T22:25:10.302Z,92.00
2019-03-04T22:27:38.949Z,91.60
2019-03-04T22:30:11.490Z,91.50
2019-03-04T22:32:39.219Z,91.40
2019-03-04T22:35:09.120Z,91.00
2019-03-04T22:37:37.015Z,90.60
2019-03-04T22:40:06.389Z,90.80
2019-03-04T22:42:35.386Z,90.60
2019-03-04T22:45:03.789Z,90.20
2019-03-04T22:47:33.484Z,90.50
2019-03-04T22:50:04.542Z,90.10
2019-03-04T22:52:36.199Z,90.00
2019-03-04T22:55:11.350Z,89.70
2019-03-04T22:57:39.024Z,89.40
2019-03-04T23:00:49.803Z,89.10
2019-03-04T23:03:18.672Z,89.20
2019-03-04T23:05:46.513Z,88.50
2019-03-04T23:08:17.769Z,88.80
2019-03-04T23:10:48.748Z,89.20
2019-03-04T23:13:38.540Z,88.90
2019-03-04T23:16:08.335Z,88.60
2019-03-04T23:18:36.842Z,88.90
2019-03-04T23:21:07.183Z,88.90
2019-03-04T23:23:34.600Z,88.60
2019-03-04T23:26:03.388Z,89.10
2019-03-04T23:28:32.284Z,88.50
2019-03-04T23:31:00.106Z,88.90
2019-03-04T23:33:29.826Z,88.90
2019-03-04T23:35:58.344Z,88.50
2019-03-04T23:38:25.897Z,88.50
2019-03-04T23:41:02.369Z,88.70
2019-03-04T23:43:34.346Z,88.50
2019-03-04T23:46:01.652Z,88.70
2019-03-04T23:48:30.179Z,88.80
2019-03-04T23:50:58.674Z,88.80
2019-03-04T23:53:26.567Z,88.90
2019-03-04T23:55:59.561Z,88.70
2019-03-04T23:58:29.339Z,89.10
